Time;durP1;ratioP1;P1;durP2;ratioP2;P2;SDS_P1;SDS_P2;PMS_P1;PMS_P2;Temp;Humidity;BMP_temperature;BMP_pressure;BME280_temperature;BME280_humidity;BME280_pressure;Samples;Min_cycle;Max_cycle;Signal;HPM_P1;HPM_P2
2021/10/23 00:00:38;;;;;;;16.60;9.70;;;;;;;9.87;100.00;97282.25;4967406;28;20054;-70
2021/10/23 00:03:04;;;;;;;19.30;9.77;;;;;;;9.80;100.00;97276.56;4967576;28;20046;-70
2021/10/23 00:05:31;;;;;;;19.23;9.30;;;;;;;9.82;100.00;97271.47;4967107;28;20046;-70
2021/10/23 00:07:58;;;;;;;19.65;11.60;;;;;;;9.69;100.00;97264.44;4966868;28;20268;-69
2021/10/23 00:10:25;;;;;;;21.83;11.70;;;;;;;9.80;100.00;97268.25;4966471;28;20074;-70
2021/10/23 00:12:52;;;;;;;20.67;11.18;;;;;;;9.79;100.00;97280.50;4967198;28;20074;-70
2021/10/23 00:15:19;;;;;;;25.08;11.43;;;;;;;9.73;100.00;97259.81;4967039;28;20054;-70
2021/10/23 00:17:45;;;;;;;17.40;9.98;;;;;;;9.51;100.00;97235.56;4964889;28;20585;-70
2021/10/23 00:20:13;;;;;;;21.63;11.98;;;;;;;9.66;100.00;97265.16;4966863;28;20058;-70
2021/10/23 00:22:40;;;;;;;18.73;9.77;;;;;;;9.71;100.00;97267.66;4966835;28;20592;-71
2021/10/23 00:25:07;;;;;;;22.45;11.45;;;;;;;9.70;100.00;97268.00;4965437;28;20055;-71
2021/10/23 00:27:35;;;;;;;20.40;9.50;;;;;;;9.68;100.00;97262.84;4966253;28;20054;-69
2021/10/23 00:30:03;;;;;;;23.30;12.07;;;;;;;9.66;100.00;97265.16;4965166;28;20085;-70
2021/10/23 00:32:30;;;;;;;16.95;9.95;;;;;;;9.01;100.00;97160.88;4966350;28;20059;-72
2021/10/23 00:34:57;;;;;;;19.83;10.02;;;;;;;9.65;100.00;97258.03;4966126;28;20054;-68
2021/10/23 00:37:24;;;;;;;20.25;9.98;;;;;;;9.51;100.00;97246.63;4964703;28;20443;-70
2021/10/23 00:39:51;;;;;;;19.63;9.43;;;;;;;9.17;100.00;97219.69;4966320;28;20065;-70
2021/10/23 00:42:17;;;;;;;20.67;10.45;;;;;;;9.28;100.00;97236.56;4966258;28;20047;-70
2021/10/23 00:44:45;;;;;;;17.00;9.40;;;;;;;9.38;100.00;97247.88;4966220;28;20055;-70
2021/10/23 00:47:17;;;;;;;16.25;9.35;;;;;;;9.43;100.00;97231.03;4966451;28;20058;-71
2021/10/23 00:49:45;;;;;;;19.30;9.80;;;;;;;9.45;100.00;97256.38;4964496;28;20055;-71
2021/10/23 00:52:12;;;;;;;23.50;10.65;;;;;;;8.75;100.00;97141.28;4966198;28;20491;-70
2021/10/23 00:54:39;;;;;;;19.80;9.15;;;;;;;9.44;100.00;97251.19;4964451;28;20050;-71
2021/10/23 00:57:07;;;;;;;15.60;8.40;;;;;;;9.18;100.00;97200.00;4966019;28;20144;-71
2021/10/23 00:59:34;;;;;;;13.88;8.27;;;;;;;9.48;100.00;97232.72;4966575;28;20503;-71
2021/10/23 01:02:02;;;;;;;17.48;8.95;;;;;;;9.07;100.00;97209.19;4966627;28;20097;-71
2021/10/23 01:04:29;;;;;;;18.05;9.75;;;;;;;9.41;100.00;97232.53;4966748;28;20093;-71
2021/10/23 01:06:56;;;;;;;12.88;7.82;;;;;;;9.33;100.00;97212.22;4964284;28;20051;-71
2021/10/23 01:09:23;;;;;;;19.65;10.07;;;;;;;9.44;100.00;97240.13;4964886;28;20059;-70
2021/10/23 01:11:51;;;;;;;17.50;8.60;;;;;;;9.46;100.00;97227.53;4966082;28;20069;-71
2021/10/23 01:14:23;;;;;;;21.25;9.95;;;;;;;9.29;100.00;97227.91;4965464;28;20113;-70
2021/10/23 01:16:54;;;;;;;22.83;10.13;;;;;;;9.07;100.00;97178.81;4965900;28;20061;-69
2021/10/23 01:19:21;;;;;;;19.17;10.05;;;;;;;9.33;100.00;97216.94;4965684;28;20521;-70
2021/10/23 01:21:50;;;;;;;20.88;10.63;;;;;;;9.42;100.00;97226.63;4966288;28;20046;-70
2021/10/23 01:24:18;;;;;;;21.20;10.07;;;;;;;9.46;100.00;97226.72;4964099;28;20051;-70
2021/10/23 01:26:45;;;;;;;19.27;10.40;;;;;;;9.40;100.00;97228.97;4960883;28;20055;-70
2021/10/23 01:29:14;;;;;;;20.40;10.80;;;;;;;9.31;100.00;97222.03;4943918;28;20054;-70
2021/10/23 01:31:43;;;;;;;20.45;10.30;;;;;;;9.22;100.00;97222.19;4946498;28;20058;-70
2021/10/23 01:34:18;;;;;;;21.27;11.63;;;;;;;9.18;100.00;97237.91;4946256;28;20059;-70
2021/10/23 01:36:51;;;;;;;20.60;11.65;;;;;;;9.01;100.00;97227.19;4946203;28;20063;-70
2021/10/23 01:39:18;;;;;;;20.52;11.25;;;;;;;9.15;100.00;97220.06;4945731;28;20438;-70
2021/10/23 01:41:45;;;;;;;21.48;10.85;;;;;;;9.25;100.00;97221.47;4946670;28;20051;-69
2021/10/23 01:44:14;;;;;;;18.83;10.32;;;;;;;9.15;100.00;97205.47;4946116;28;20061;-69
2021/10/23 01:46:42;;;;;;;17.50;9.98;;;;;;;9.36;100.00;97217.03;4944676;28;20589;-70
2021/10/23 01:49:09;;;;;;;20.30;10.77;;;;;;;9.37;100.00;97224.19;4945703;28;20066;-68
2021/10/23 01:51:37;;;;;;;19.50;10.30;;;;;;;9.35;100.00;97223.72;4946187;29;20055;-70
2021/10/23 01:54:06;;;;;;;18.65;10.48;;;;;;;9.36;100.00;97228.06;4945710;28;20051;-72
2021/10/23 01:56:34;;;;;;;17.65;9.02;;;;;;;9.30;100.00;97232.28;4945934;28;20059;-71
2021/10/23 01:59:01;;;;;;;18.27;10.30;;;;;;;8.89;100.00;97203.22;4944699;29;20047;-70
2021/10/23 02:01:28;;;;;;;19.13;9.75;;;;;;;9.17;100.00;97247.34;4946409;28;20504;-71
2021/10/23 02:03:55;;;;;;;17.67;10.18;;;;;;;8.99;100.00;97190.84;4945858;28;20051;-71
2021/10/23 02:06:22;;;;;;;16.63;9.70;;;;;;;8.66;100.00;97182.09;4945720;28;20437;-71
2021/10/23 02:08:49;;;;;;;18.98;10.70;;;;;;;9.04;100.00;97237.56;4945904;28;20146;-71
2021/10/23 02:11:17;;;;;;;25.60;10.85;;;;;;;8.98;100.00;97238.94;4944509;29;20170;-73
2021/10/23 02:13:44;;;;;;;19.80;10.25;;;;;;;8.82;100.00;97213.28;4945741;28;20059;-72
2021/10/23 02:16:12;;;;;;;19.75;10.52;;;;;;;8.81;100.00;97212.47;4944233;28;20055;-73
2021/10/23 02:18:39;;;;;;;23.23;10.60;;;;;;;8.84;100.00;97216.47;4945578;28;20047;-71
2021/10/23 02:21:07;;;;;;;18.70;9.40;;;;;;;8.86;100.00;97225.22;4945974;28;20055;-71
2021/10/23 02:23:34;;;;;;;18.88;9.60;;;;;;;8.95;100.00;97225.84;4943729;29;20051;-72
2021/10/23 02:26:01;;;;;;;18.73;10.15;;;;;;;8.85;100.00;97229.94;4954254;28;20081;-71
2021/10/23 02:28:28;;;;;;;21.05;11.77;;;;;;;8.64;100.00;97178.88;4964567;28;20054;-72
2021/10/23 02:30:56;;;;;;;20.98;10.60;;;;;;;8.83;100.00;97226.75;4964835;28;20130;-72
2021/10/23 02:33:22;;;;;;;20.77;10.35;;;;;;;8.86;100.00;97237.09;4963378;28;20067;-71
2021/10/23 02:35:49;;;;;;;22.92;10.52;;;;;;;8.47;100.00;97157.13;4964514;28;20069;-72
2021/10/23 02:38:16;;;;;;;21.83;11.05;;;;;;;8.69;100.00;97186.91;4963373;28;20449;-71
2021/10/23 02:40:43;;;;;;;18.50;10.70;;;;;;;8.87;100.00;97232.34;4967899;28;20054;-71
2021/10/23 02:43:09;;;;;;;22.48;9.90;;;;;;;8.82;100.00;97235.38;4968572;28;20529;-72
2021/10/23 02:45:36;;;;;;;19.52;10.20;;;;;;;8.75;100.00;97235.19;4968575;28;20051;-73
2021/10/23 02:48:03;;;;;;;18.75;8.73;;;;;;;8.84;100.00;97241.34;4968589;28;20055;-71
2021/10/23 02:50:30;;;;;;;21.77;10.48;;;;;;;8.09;100.00;97132.00;4968579;28;20078;-71
2021/10/23 02:52:57;;;;;;;21.63;10.25;;;;;;;8.89;100.00;97236.38;4966850;28;20067;-72
2021/10/23 02:55:24;;;;;;;21.67;10.35;;;;;;;8.64;100.00;97245.13;4966716;28;20051;-73
2021/10/23 02:57:50;;;;;;;18.58;10.50;;;;;;;8.22;100.00;97166.66;4968840;28;20061;-72
2021/10/23 03:00:17;;;;;;;17.35;9.65;;;;;;;8.71;100.00;97251.66;4968230;28;20544;-72
2021/10/23 03:02:45;;;;;;;22.85;10.57;;;;;;;8.75;100.00;97268.31;4968364;28;20068;-72
2021/10/23 03:05:12;;;;;;;22.42;11.07;;;;;;;8.76;100.00;97269.91;4967872;28;20062;-71
2021/10/23 03:07:39;;;;;;;20.10;10.10;;;;;;;8.53;100.00;97221.97;4968153;28;20063;-72
2021/10/23 03:10:06;;;;;;;21.77;11.15;;;;;;;8.79;100.00;97269.22;4968023;28;20077;-70
2021/10/23 03:12:33;;;;;;;21.67;11.07;;;;;;;8.28;100.00;97187.34;4968112;28;20058;-72
2021/10/23 03:15:00;;;;;;;26.58;12.00;;;;;;;8.70;100.00;97244.53;4968106;28;20069;-71
2021/10/23 03:17:26;;;;;;;28.05;14.25;;;;;;;7.93;100.00;97213.88;4968574;28;20054;-72
2021/10/23 03:19:53;;;;;;;24.40;13.85;;;;;;;8.12;100.00;97269.22;4966119;28;20825;-71
2021/10/23 03:22:20;;;;;;;21.65;11.38;;;;;;;7.97;100.00;97214.78;4968028;28;20069;-71
2021/10/23 03:24:46;;;;;;;23.33;11.52;;;;;;;8.37;100.00;97257.00;4967552;28;20058;-72
2021/10/23 03:27:14;;;;;;;19.15;10.88;;;;;;;8.28;100.00;97264.63;4967540;28;20046;-71
2021/10/23 03:29:43;;;;;;;23.98;12.50;;;;;;;8.41;100.00;97260.66;4967288;28;20054;-69
2021/10/23 03:32:09;;;;;;;23.10;11.40;;;;;;;7.48;100.00;97098.31;4967539;28;20046;-71
2021/10/23 03:34:36;;;;;;;23.77;11.55;;;;;;;8.25;100.00;97248.75;4967564;28;20506;-70
2021/10/23 03:37:03;;;;;;;26.42;13.25;;;;;;;8.40;100.00;97267.31;4967838;28;20058;-70
2021/10/23 03:39:30;;;;;;;24.73;13.27;;;;;;;8.51;100.00;97254.63;4967443;28;20101;-70
2021/10/23 03:41:57;;;;;;;25.38;13.38;;;;;;;8.21;100.00;97198.13;4967589;28;20054;-71
2021/10/23 03:44:24;;;;;;;26.58;12.35;;;;;;;7.86;100.00;97148.28;4967486;28;20050;-71
2021/10/23 03:46:50;;;;;;;19.13;12.02;;;;;;;8.60;100.00;97256.06;4965906;28;20058;-71
2021/10/23 03:49:17;;;;;;;22.88;11.63;;;;;;;8.52;100.00;97259.78;4967723;28;20050;-72
2021/10/23 03:51:44;;;;;;;23.90;12.18;;;;;;;8.52;100.00;97256.25;4966510;28;20058;-71
2021/10/23 03:54:11;;;;;;;29.20;14.95;;;;;;;8.05;100.00;97166.94;4967557;28;20055;-71
2021/10/23 03:56:38;;;;;;;30.05;14.48;;;;;;;8.48;100.00;97234.06;4966002;28;20494;-70
2021/10/23 03:59:05;;;;;;;32.47;15.57;;;;;;;8.74;100.00;97266.72;4966894;28;20061;-71
2021/10/23 04:01:31;;;;;;;28.52;16.23;;;;;;;8.39;100.00;97216.84;4967115;28;20050;-72
2021/10/23 04:03:58;;;;;;;38.00;18.73;;;;;;;8.73;100.00;97276.16;4966930;28;20450;-72
2021/10/23 04:06:25;;;;;;;31.13;15.10;;;;;;;7.41;100.00;97206.38;4967292;28;20419;-73
2021/10/23 04:08:52;;;;;;;31.00;14.48;;;;;;;8.12;100.00;97271.97;4966763;28;20142;-71
2021/10/23 04:11:18;;;;;;;30.80;15.68;;;;;;;8.31;100.00;97266.66;4965159;28;20051;-72
2021/10/23 04:13:45;;;;;;;31.90;16.85;;;;;;;8.37;100.00;97273.53;4966075;28;20046;-71
2021/10/23 04:16:12;;;;;;;34.22;16.77;;;;;;;8.42;100.00;97265.03;4965253;28;20058;-72
2021/10/23 04:18:38;;;;;;;24.05;14.00;;;;;;;8.14;100.00;97264.16;4966882;28;20054;-71
2021/10/23 04:21:05;;;;;;;28.63;15.32;;;;;;;8.20;100.00;97268.28;4964884;28;20528;-69
2021/10/23 04:23:32;;;;;;;37.00;16.05;;;;;;;8.19;100.00;97250.91;4966662;28;20055;-69
2021/10/23 04:25:59;;;;;;;30.27;15.85;;;;;;;8.32;100.00;97282.06;4966547;28;20057;-69
2021/10/23 04:28:25;;;;;;;28.80;15.43;;;;;;;8.12;100.00;97283.84;4966627;28;20055;-70
2021/10/23 04:30:52;;;;;;;27.95;14.40;;;;;;;7.67;100.00;97288.72;4964937;28;20169;-68
2021/10/23 04:33:19;;;;;;;28.10;13.80;;;;;;;7.94;100.00;97292.69;4966954;28;20065;-70
2021/10/23 04:35:46;;;;;;;25.15;13.13;;;;;;;7.70;100.00;97264.00;4966517;28;20062;-71
2021/10/23 04:38:12;;;;;;;39.85;18.00;;;;;;;8.01;100.00;97287.41;4966875;28;20054;-70
2021/10/23 04:40:39;;;;;;;38.30;18.95;;;;;;;5.78;100.00;96930.94;4966462;28;20051;-69
2021/10/23 04:43:06;;;;;;;32.85;17.33;;;;;;;8.17;100.00;97296.59;4966378;28;20497;-70
2021/10/23 04:45:33;;;;;;;44.20;26.98;;;;;;;7.35;100.00;97177.47;4966076;28;20050;-71
2021/10/23 04:48:00;;;;;;;57.10;28.17;;;;;;;8.05;100.00;97263.47;4966206;28;20074;-70
2021/10/23 04:50:27;;;;;;;47.30;26.55;;;;;;;8.32;100.00;97287.59;4964673;28;20057;-69
2021/10/23 04:52:54;;;;;;;52.05;26.60;;;;;;;8.46;100.00;97288.81;4966364;28;20081;-70
2021/10/23 04:55:20;;;;;;;57.67;27.98;;;;;;;8.60;100.00;97282.91;4966214;28;20054;-70
2021/10/23 04:57:47;;;;;;;53.92;25.88;;;;;;;8.62;100.00;97297.13;4965737;28;20059;-69
2021/10/23 05:00:14;;;;;;;40.75;20.27;;;;;;;8.20;100.00;97257.25;4966165;28;20100;-69
2021/10/23 05:02:41;;;;;;;28.40;13.55;;;;;;;8.11;100.00;97295.22;4965397;28;20067;-67
2021/10/23 05:05:08;;;;;;;23.02;12.13;;;;;;;7.74;100.00;97267.66;4964042;28;20588;-67
2021/10/23 05:07:35;;;;;;;26.63;13.85;;;;;;;7.70;100.00;97250.22;4965361;28;20082;-69
2021/10/23 05:10:03;;;;;;;28.05;15.48;;;;;;;7.89;100.00;97240.56;4966105;28;20445;-68
2021/10/23 05:12:29;;;;;;;23.25;13.77;;;;;;;8.47;100.00;97322.75;4965681;28;20061;-67
2021/10/23 05:14:56;;;;;;;20.85;11.30;;;;;;;8.47;100.00;97317.22;4964595;28;20057;-66
2021/10/23 05:17:23;;;;;;;31.30;15.15;;;;;;;8.54;100.00;97322.94;4964337;28;20088;-67
2021/10/23 05:19:50;;;;;;;23.60;12.25;;;;;;;8.65;100.00;97330.38;4965306;28;20055;-68
2021/10/23 05:22:16;;;;;;;27.50;12.35;;;;;;;8.11;100.00;97331.09;4965444;28;20065;-68
2021/10/23 05:24:43;;;;;;;25.42;12.95;;;;;;;7.82;100.00;97240.34;4964054;28;20093;-68
2021/10/23 05:27:10;;;;;;;32.95;14.15;;;;;;;7.88;100.00;97227.91;4965142;28;20054;-68
2021/10/23 05:29:36;;;;;;;26.67;12.95;;;;;;;8.79;100.00;97332.72;4965415;28;20059;-68
2021/10/23 05:32:03;;;;;;;32.92;17.23;;;;;;;8.75;100.00;97345.66;4964622;28;20050;-68
2021/10/23 05:34:30;;;;;;;32.55;15.13;;;;;;;8.32;100.00;97342.78;4965378;28;20053;-68
2021/10/23 05:36:57;;;;;;;48.97;23.92;;;;;;;8.66;100.00;97343.03;4965291;28;20054;-67
2021/10/23 05:39:24;;;;;;;47.50;25.30;;;;;;;8.94;100.00;97348.56;4965264;28;20129;-67
2021/10/23 05:41:50;;;;;;;48.25;23.92;;;;;;;9.25;100.00;97348.63;4965379;28;20086;-68
2021/10/23 05:44:18;;;;;;;45.20;22.58;;;;;;;9.45;100.00;97342.06;4965855;28;20422;-67
2021/10/23 05:46:44;;;;;;;43.00;21.58;;;;;;;9.36;100.00;97316.53;4965241;28;20542;-68
2021/10/23 05:49:11;;;;;;;46.17;24.33;;;;;;;9.93;100.00;97352.75;4965664;28;20055;-68
2021/10/23 05:51:38;;;;;;;35.45;21.30;;;;;;;10.17;100.00;97357.31;4964148;28;20059;-68
2021/10/23 05:54:05;;;;;;;34.92;16.08;;;;;;;9.74;100.00;97253.09;4965233;28;20437;-68
2021/10/23 05:56:32;;;;;;;34.10;19.48;;;;;;;10.37;100.00;97307.16;4964761;28;20138;-68
2021/10/23 05:59:09;;;;;;;39.67;19.90;;;;;;;10.35;99.15;97275.47;4965420;28;20065;-68
2021/10/23 06:01:42;;;;;;;33.45;16.77;;;;;;;10.13;96.62;97252.03;4965172;28;20061;-67
2021/10/23 06:04:09;;;;;;;44.13;21.83;;;;;;;11.05;96.72;97314.91;4964183;28;20837;-67
2021/10/23 06:06:37;;;;;;;39.08;20.05;;;;;;;11.52;96.11;97373.63;4965246;28;20125;-68
2021/10/23 06:09:05;;;;;;;42.00;19.90;;;;;;;10.10;95.29;97155.13;4964714;28;20069;-67
2021/10/23 06:11:33;;;;;;;41.72;21.17;;;;;;;11.54;93.90;97310.28;4963903;28;20134;-61
2021/10/23 06:14:01;;;;;;;34.72;16.90;;;;;;;10.34;92.94;97086.38;4959694;28;20061;-63
2021/10/23 06:16:29;;;;;;;26.08;12.43;;;;;;;12.35;92.82;97379.06;4964262;28;20434;-61
2021/10/23 06:18:56;;;;;;;23.40;11.93;;;;;;;12.29;92.70;97330.56;4964623;28;20055;-59
2021/10/23 06:21:23;;;;;;;18.70;10.75;;;;;;;12.82;92.20;97371.00;4964802;28;20499;-61
2021/10/23 06:23:50;;;;;;;20.42;10.57;;;;;;;13.10;90.37;97359.47;4957308;28;20047;-62
2021/10/23 06:26:16;;;;;;;28.10;13.75;;;;;;;13.17;90.03;97354.81;4956412;28;20046;-59
2021/10/23 06:28:43;;;;;;;24.95;13.85;;;;;;;13.25;88.47;97337.00;4961984;28;20062;-63
2021/10/23 06:31:10;;;;;;;23.40;13.32;;;;;;;12.87;86.67;97269.78;4963803;28;20093;-65
2021/10/23 06:33:37;;;;;;;32.03;15.43;;;;;;;13.29;84.72;97267.50;4963218;28;20078;-63
2021/10/23 06:36:03;;;;;;;28.02;14.20;;;;;;;13.42;83.85;97277.97;4964530;28;20066;-62
2021/10/23 06:38:30;;;;;;;24.95;13.48;;;;;;;13.80;83.87;97320.47;4964124;28;20054;-65
2021/10/23 06:40:57;;;;;;;35.67;17.65;;;;;;;14.37;84.42;97364.34;4963233;28;20066;-64
2021/10/23 06:43:25;;;;;;;38.72;19.08;;;;;;;14.64;82.40;97360.13;4961691;28;20051;-64
2021/10/23 06:45:53;;;;;;;30.33;16.08;;;;;;;14.42;81.19;97291.50;4950413;28;20499;-65
2021/10/23 06:48:20;;;;;;;29.58;14.13;;;;;;;14.51;78.59;97272.47;4943317;29;20577;-64
2021/10/23 06:50:47;;;;;;;21.00;11.25;;;;;;;13.00;77.58;97038.38;4945351;28;20065;-62
2021/10/23 06:53:15;;;;;;;19.25;10.05;;;;;;;14.51;79.57;97356.09;4954836;28;20055;-64
2021/10/23 06:55:42;;;;;;;21.80;10.93;;;;;;;14.83;80.14;97373.78;4964254;28;20745;-63
2021/10/23 06:58:08;;;;;;;17.02;9.95;;;;;;;14.09;81.09;97269.34;4978340;28;20051;-62
2021/10/23 07:00:35;;;;;;;17.23;10.35;;;;;;;14.61;83.91;97377.63;4964406;28;20173;-63
2021/10/23 07:03:02;;;;;;;13.68;9.65;;;;;;;14.77;84.18;97383.72;4963394;28;20513;-61
2021/10/23 07:05:31;;;;;;;15.02;8.57;;;;;;;14.64;82.81;97360.13;4954654;28;20146;-59
2021/10/23 07:07:58;;;;;;;12.80;8.05;;;;;;;15.10;83.01;97394.66;4959259;28;20065;-62
2021/10/23 07:10:26;;;;;;;16.63;7.95;;;;;;;15.33;81.91;97397.97;4974491;28;20524;-63
2021/10/23 07:12:53;;;;;;;14.40;8.00;;;;;;;15.30;80.66;97359.66;4944710;28;20055;-63
2021/10/23 07:15:20;;;;;;;10.25;7.20;;;;;;;15.72;79.94;97398.94;4943964;28;20521;-62
2021/10/23 07:17:47;;;;;;;13.30;7.63;;;;;;;15.25;78.21;97301.44;4960327;28;20057;-66
2021/10/23 07:20:13;;;;;;;12.98;7.72;;;;;;;16.08;77.81;97400.59;4963559;28;20533;-62
2021/10/23 07:22:41;;;;;;;15.57;8.13;;;;;;;16.48;75.73;97403.03;4963939;28;20062;-64
2021/10/23 07:25:08;;;;;;;13.90;8.13;;;;;;;15.97;75.68;97309.56;4962849;28;20051;-66
2021/10/23 07:27:35;;;;;;;12.38;7.72;;;;;;;17.02;73.32;97395.38;4966257;28;20061;-66
2021/10/23 07:30:08;;;;;;;13.45;7.38;;;;;;;17.08;71.69;97351.75;4967210;28;20149;-64
2021/10/23 07:32:37;;;;;;;17.23;8.87;;;;;;;17.76;70.89;97393.91;4979497;28;20051;-62
2021/10/23 07:35:05;;;;;;;12.10;8.32;;;;;;;17.99;67.99;97379.31;4966524;28;20494;-67
2021/10/23 07:37:32;;;;;;;14.30;9.05;;;;;;;18.44;65.97;97411.91;4966870;28;20141;-68
2021/10/23 07:39:59;;;;;;;13.00;8.57;;;;;;;18.64;65.10;97379.25;4967082;28;20501;-67
2021/10/23 07:42:26;;;;;;;12.77;9.00;;;;;;;19.07;64.34;97405.69;4966909;28;20405;-67
2021/10/23 07:44:53;;;;;;;17.38;9.70;;;;;;;18.46;64.46;97274.81;4962742;28;20054;-63
2021/10/23 07:47:21;;;;;;;15.55;9.68;;;;;;;19.31;63.01;97390.63;4966896;28;20059;-63
2021/10/23 07:49:48;;;;;;;16.27;9.88;;;;;;;19.20;62.13;97353.41;4966727;28;20054;-62
2021/10/23 07:52:16;;;;;;;14.20;9.27;;;;;;;17.53;62.05;97098.69;4981867;28;20065;-64
2021/10/23 07:54:43;;;;;;;13.02;9.13;;;;;;;19.62;61.76;97396.28;4965771;28;20055;-62
2021/10/23 07:57:10;;;;;;;17.63;10.35;;;;;;;19.58;61.43;97380.22;4966349;28;20055;-63
2021/10/23 07:59:37;;;;;;;17.80;10.27;;;;;;;19.47;60.73;97402.03;4957536;28;20051;-63
2021/10/23 08:02:06;;;;;;;15.30;9.40;;;;;;;19.08;60.50;97356.72;4947079;28;20059;-65
2021/10/23 08:04:33;;;;;;;15.20;9.40;;;;;;;18.98;60.69;97346.44;4964677;28;20537;-65
2021/10/23 08:07:01;;;;;;;19.88;12.55;;;;;;;19.34;60.78;97392.59;4949752;28;20387;-66
2021/10/23 08:09:35;;;;;;;17.83;9.77;;;;;;;18.99;60.44;97331.16;4959267;28;20062;-64
2021/10/23 08:12:03;;;;;;;17.20;10.73;;;;;;;19.41;60.63;97391.72;4953524;28;20517;-67
2021/10/23 08:14:32;;;;;;;18.63;10.35;;;;;;;18.81;61.24;97330.56;4962149;28;20051;-64
2021/10/23 08:16:59;;;;;;;16.83;10.30;;;;;;;18.86;61.75;97332.91;4966259;28;20055;-66
2021/10/23 08:19:26;;;;;;;17.20;11.43;;;;;;;19.16;62.04;97388.34;4954906;28;20105;-64
2021/10/23 08:21:52;;;;;;;18.05;10.25;;;;;;;19.14;63.31;97388.75;4965971;28;20429;-64
2021/10/23 08:24:19;;;;;;;20.35;10.90;;;;;;;18.66;63.12;97301.06;4965579;28;20053;-65
2021/10/23 08:26:46;;;;;;;20.50;11.43;;;;;;;19.16;62.73;97403.19;4966258;28;20054;-66
2021/10/23 08:29:13;;;;;;;13.95;10.05;;;;;;;17.33;64.41;97125.63;4965096;28;20057;-66
2021/10/23 08:31:41;;;;;;;18.83;10.38;;;;;;;18.35;65.17;97279.72;4965261;28;20055;-63
2021/10/23 08:34:09;;;;;;;12.70;8.98;;;;;;;18.82;65.02;97396.72;4965516;28;20078;-63
2021/10/23 08:36:36;;;;;;;13.10;8.27;;;;;;;18.91;65.68;97408.25;4979407;28;20051;-65
2021/10/23 08:39:05;;;;;;;9.57;6.85;;;;;;;18.40;66.91;97321.34;4961971;28;20051;-62
2021/10/23 08:41:32;;;;;;;11.82;8.38;;;;;;;18.99;67.02;97392.94;4965843;28;20046;-61
2021/10/23 08:44:04;;;;;;;11.98;6.90;;;;;;;18.51;64.61;97276.38;4965479;28;20065;-64
2021/10/23 08:46:36;;;;;;;8.88;6.40;;;;;;;19.54;63.95;97396.34;4966505;28;20062;-68
2021/10/23 08:49:04;;;;;;;9.95;7.20;;;;;;;19.75;63.39;97391.66;4965618;28;20059;-66
2021/10/23 08:51:32;;;;;;;11.77;7.05;;;;;;;19.84;62.17;97361.03;4965020;28;20054;-61
2021/10/23 08:54:00;;;;;;;9.45;7.13;;;;;;;19.06;59.79;97178.66;4961161;28;20535;-62
2021/10/23 08:56:32;;;;;;;9.50;6.85;;;;;;;20.50;59.00;97387.34;4964586;28;20069;-62
2021/10/23 08:58:58;;;;;;;10.20;7.38;;;;;;;20.49;58.09;97349.97;4964692;28;20063;-66
2021/10/23 09:01:26;;;;;;;11.90;7.38;;;;;;;20.68;57.94;97362.50;4966053;28;20059;-61
2021/10/23 09:03:54;;;;;;;13.25;7.88;;;;;;;20.41;58.14;97297.03;4965420;28;20149;-64
2021/10/23 09:06:36;;;;;;;17.30;11.77;;;;;;;20.82;57.80;97354.59;4965849;28;20520;-62
2021/10/23 09:09:04;;;;;;;9.40;7.45;;;;;;;20.89;58.02;97364.94;4964446;28;20055;-65
2021/10/23 09:11:36;;;;;;;8.73;6.35;;;;;;;20.94;55.88;97364.47;4964726;28;20113;-63
2021/10/23 09:14:29;;;;;;;10.77;7.63;;;;;;;20.77;57.11;97372.00;4964701;28;20046;-64
2021/10/23 09:17:07;;;;;;;16.60;9.30;;;;;;;20.95;57.99;97368.84;4959606;28;20051;-61
2021/10/23 09:19:41;;;;;;;13.15;9.18;;;;;;;20.60;57.50;97361.84;4964381;28;20530;-62
2021/10/23 09:22:21;;;;;;;8.07;6.80;;;;;;;20.49;56.64;97368.88;4964741;28;20091;-65
2021/10/23 09:25:19;;;;;;;15.95;8.70;;;;;;;20.53;56.39;97372.44;4964513;28;20125;-65
2021/10/23 09:28:11;;;;;;;7.78;6.20;;;;;;;20.71;56.48;97361.63;4964443;28;20054;-66
2021/10/23 09:30:41;;;;;;;6.28;5.55;;;;;;;20.71;55.87;97370.09;4980358;28;20054;-68
2021/10/23 09:33:13;;;;;;;11.45;7.30;;;;;;;20.90;56.21;97363.72;4960366;28;20055;-66
2021/10/23 09:35:43;;;;;;;9.25;7.05;;;;;;;20.99;55.71;97352.72;4964612;28;20517;-60
2021/10/23 09:38:12;;;;;;;14.13;9.73;;;;;;;20.62;56.63;97348.13;4964952;28;20137;-67
2021/10/23 09:40:47;;;;;;;11.00;7.47;;;;;;;20.90;55.56;97369.34;4964893;28;20575;-67
2021/10/23 09:43:19;;;;;;;9.95;6.43;;;;;;;21.09;55.71;97371.44;4965173;28;20097;-63
2021/10/23 09:45:55;;;;;;;17.33;6.63;;;;;;;21.21;56.50;97368.00;4964722;28;20424;-67
2021/10/23 09:48:39;;;;;;;7.60;6.53;;;;;;;21.12;55.15;97376.19;4964686;28;20057;-62
2021/10/23 09:51:06;;;;;;;7.22;6.53;;;;;;;20.71;55.23;97378.53;4964674;28;20055;-63
2021/10/23 09:53:36;;;;;;;10.02;6.53;;;;;;;20.49;56.03;97382.94;4964471;28;20058;-62
2021/10/23 09:56:06;;;;;;;7.18;5.57;;;;;;;19.83;56.43;97356.59;4964643;28;20528;-61
2021/10/23 09:58:34;;;;;;;9.30;7.68;;;;;;;20.89;55.28;97373.41;4964700;28;20059;-61
2021/10/23 10:01:01;;;;;;;9.48;8.20;;;;;;;21.05;54.52;97347.38;4965220;28;20085;-61
2021/10/23 10:03:29;;;;;;;12.55;8.85;;;;;;;21.28;52.97;97321.94;4979487;28;20062;-61
2021/10/23 10:05:57;;;;;;;16.55;9.60;;;;;;;21.67;53.67;97367.81;4964491;28;20142;-62
2021/10/23 10:08:25;;;;;;;8.13;6.93;;;;;;;22.05;51.26;97365.41;4954210;28;20568;-62
2021/10/23 10:10:55;;;;;;;8.82;5.88;;;;;;;22.04;50.03;97381.56;4945471;28;20061;-68
2021/10/23 10:13:24;;;;;;;11.43;8.07;;;;;;;22.15;50.52;97365.16;4945362;28;20059;-67
2021/10/23 10:15:58;;;;;;;8.65;7.05;;;;;;;22.47;48.53;97353.09;4944995;28;20063;-68
2021/10/23 10:18:25;;;;;;;7.95;7.15;;;;;;;22.83;49.04;97353.00;4945104;28;20207;-68
2021/10/23 10:20:56;;;;;;;10.43;7.47;;;;;;;22.21;48.70;97343.66;4960001;28;20051;-68
2021/10/23 10:23:32;;;;;;;7.47;6.05;;;;;;;22.41;48.84;97346.41;4944897;28;20526;-68
2021/10/23 10:26:18;;;;;;;7.05;6.22;;;;;;;23.10;47.32;97350.66;4945333;28;20134;-68
2021/10/23 10:29:12;;;;;;;9.52;6.60;;;;;;;23.32;45.97;97341.19;4955848;28;20090;-68
2021/10/23 10:31:57;;;;;;;6.67;6.07;;;;;;;22.97;45.82;97335.72;4964289;28;20131;-69
2021/10/23 10:43:03;;;;;;;11.45;6.60;;;;;;;22.89;45.34;97255.19;4963870;28;20723;-69
2021/10/23 10:45:41;;;;;;;8.05;7.25;;;;;;;22.84;45.52;97293.25;4962376;28;20441;-68
2021/10/23 10:48:12;;;;;;;6.60;6.00;;;;;;;22.80;46.06;97332.09;4962979;28;20063;-67
2021/10/23 10:50:43;;;;;;;8.18;6.25;;;;;;;23.02;46.45;97332.31;4964150;28;20054;-67
2021/10/23 10:53:29;;;;;;;7.78;6.65;;;;;;;23.67;44.53;97339.34;4963985;28;20146;-68
2021/10/23 10:55:58;;;;;;;6.45;5.90;;;;;;;23.65;44.97;97327.69;4964296;28;20074;-68
2021/10/23 10:58:45;;;;;;;6.53;5.88;;;;;;;24.06;44.02;97324.81;4962791;28;20065;-69
2021/10/23 11:01:22;;;;;;;8.90;7.93;;;;;;;24.72;42.35;97330.34;4966829;28;20157;-68
2021/10/23 11:03:52;;;;;;;6.93;6.25;;;;;;;24.95;42.23;97315.78;4967261;28;20497;-69
2021/10/23 11:09:10;;;;;;;11.00;6.93;;;;;;;25.37;42.41;97321.19;4967394;28;20119;-67
2021/10/23 11:11:43;;;;;;;9.00;7.22;;;;;;;25.57;41.13;97313.13;4966265;28;20061;-62
2021/10/23 11:14:36;;;;;;;7.33;6.63;;;;;;;23.77;41.79;97077.97;4958120;28;20149;-72
2021/10/23 11:17:03;;;;;;;9.02;6.70;;;;;;;23.68;44.54;97321.13;4984032;28;20133;-65
2021/10/23 11:19:37;;;;;;;10.05;7.38;;;;;;;23.83;44.90;97325.13;4960648;28;20137;-62
2021/10/23 11:22:30;;;;;;;7.03;6.53;;;;;;;23.37;44.89;97320.03;4966711;28;20136;-68
2021/10/23 11:25:06;;;;;;;6.82;6.05;;;;;;;23.41;45.02;97281.16;4973594;28;20605;-70
2021/10/23 11:27:44;;;;;;;7.40;6.25;;;;;;;22.89;46.55;97226.94;4967145;28;20509;-65
2021/10/23 11:30:31;;;;;;;7.82;7.03;;;;;;;23.10;45.51;97254.56;4967963;28;20283;-67
2021/10/23 11:33:04;;;;;;;11.50;7.43;;;;;;;23.58;44.67;97316.59;4961902;28;20057;-68
2021/10/23 11:35:33;;;;;;;8.40;6.37;;;;;;;23.17;45.03;97316.56;4954899;28;20483;-68
2021/10/23 11:38:11;;;;;;;7.80;6.70;;;;;;;22.81;45.93;97310.31;4947958;28;20295;-73
2021/10/23 11:40:41;;;;;;;6.97;6.38;;;;;;;22.51;46.46;97317.09;4959245;28;20500;-62